IRA953T HLLM-DTTA
Flight info
| Callsign | IRA953T |
|---|---|
| Flight time | 0h 55m |
| Altitude | 32000 |
| Route | GASRI2D GASRI UN157 MON UA411 VAXAL DCT NIREM |
| Aircraft | B38M/M-SDE1FGHILORVWXY/HB1 |
Departure
| Time | 2026-04-22 20:16 |
|---|---|
| Airport | Mitiga International Airport (HLLM) |
Arrival
| Time | 2026-04-22 21:11 |
|---|---|
| Airport | Tunis Carthage International Airport (DTTA) |
| Time | Latitude | Longitude | Altitude | Speed | Heading |
|---|---|---|---|---|---|
| 2026-04-22 19:53 | 32.90176 | 13.27581 | 27 ft | 0 kts | 262° |
| 2026-04-22 20:11 | 32.90176 | 13.27580 | 27 ft | 0 kts | 262° |
| 2026-04-22 20:11 | 32.90174 | 13.27576 | 27 ft | 0 kts | 241° |
| 2026-04-22 20:12 | 32.90170 | 13.27575 | 27 ft | 1 kts | 190° |
| 2026-04-22 20:12 | 32.90164 | 13.27577 | 26 ft | 0 kts | 178° |
| 2026-04-22 20:12 | 32.90175 | 13.27577 | 26 ft | 2 kts | 173° |
| 2026-04-22 20:12 | 32.90157 | 13.27604 | 28 ft | 21 kts | 133° |
| 2026-04-22 20:13 | 32.90021 | 13.27701 | 24 ft | 24 kts | 193° |
| 2026-04-22 20:13 | 32.89856 | 13.27638 | 24 ft | 26 kts | 198° |
| 2026-04-22 20:13 | 32.89705 | 13.27529 | 25 ft | 26 kts | 226° |
| 2026-04-22 20:13 | 32.89699 | 13.27328 | 25 ft | 26 kts | 282° |
| 2026-04-22 20:14 | 32.89712 | 13.27116 | 26 ft | 26 kts | 238° |
| 2026-04-22 20:14 | 32.89583 | 13.27066 | 25 ft | 6 kts | 154° |
| 2026-04-22 20:14 | 32.89570 | 13.27091 | 26 ft | 3 kts | 103° |
| 2026-04-22 20:14 | 32.89564 | 13.27123 | 25 ft | 5 kts | 103° |
| 2026-04-22 20:15 | 32.89555 | 13.27169 | 27 ft | 7 kts | 103° |
| 2026-04-22 20:15 | 32.89517 | 13.27320 | 27 ft | 32 kts | 107° |
| 2026-04-22 20:15 | 32.89424 | 13.27727 | 27 ft | 75 kts | 105° |
| 2026-04-22 20:15 | 32.89233 | 13.28579 | 24 ft | 139 kts | 105° |
| 2026-04-22 20:16 | 32.88939 | 13.29843 | 391 ft | 168 kts | 105° |
| 2026-04-22 20:16 | 32.88595 | 13.31300 | 930 ft | 198 kts | 106° |
| 2026-04-22 20:16 | 32.88291 | 13.32901 | 1874 ft | 202 kts | 101° |
| 2026-04-22 20:16 | 32.88213 | 13.34602 | 2753 ft | 217 kts | 77° |
| 2026-04-22 20:17 | 32.89035 | 13.36168 | 3517 ft | 232 kts | 36° |
| 2026-04-22 20:17 | 32.90587 | 13.36792 | 4321 ft | 246 kts | 360° |
| 2026-04-22 20:17 | 32.92315 | 13.36676 | 5159 ft | 259 kts | 358° |
| 2026-04-22 20:17 | 32.94158 | 13.36645 | 6194 ft | 263 kts | 359° |
| 2026-04-22 20:18 | 32.95979 | 13.36612 | 7197 ft | 267 kts | 356° |
| 2026-04-22 20:18 | 32.97845 | 13.36435 | 8179 ft | 271 kts | 355° |
| 2026-04-22 20:18 | 32.99742 | 13.36258 | 9140 ft | 275 kts | 355° |
| 2026-04-22 20:18 | 33.01666 | 13.36086 | 10079 ft | 279 kts | 355° |
| 2026-04-22 20:19 | 33.03627 | 13.35914 | 10883 ft | 288 kts | 356° |
| 2026-04-22 20:19 | 33.05695 | 13.35735 | 11366 ft | 308 kts | 356° |
| 2026-04-22 20:19 | 33.07901 | 13.35545 | 11777 ft | 328 kts | 356° |
| 2026-04-22 20:19 | 33.10247 | 13.35344 | 12130 ft | 348 kts | 356° |
| 2026-04-22 20:20 | 33.12725 | 13.35131 | 12497 ft | 365 kts | 356° |
| 2026-04-22 20:20 | 33.15294 | 13.34911 | 13038 ft | 374 kts | 356° |
| 2026-04-22 20:20 | 33.17891 | 13.34688 | 13864 ft | 373 kts | 356° |
| 2026-04-22 20:20 | 33.20441 | 13.34469 | 15022 ft | 362 kts | 356° |
| 2026-04-22 20:21 | 33.22912 | 13.34256 | 16217 ft | 350 kts | 356° |
| 2026-04-22 20:21 | 33.25295 | 13.34051 | 17374 ft | 337 kts | 356° |
| 2026-04-22 20:21 | 33.27603 | 13.33853 | 18404 ft | 329 kts | 356° |
| 2026-04-22 20:21 | 33.29879 | 13.33657 | 19225 ft | 327 kts | 356° |
| 2026-04-22 20:22 | 33.32143 | 13.33462 | 19923 ft | 327 kts | 356° |
| 2026-04-22 20:22 | 33.34419 | 13.33266 | 20547 ft | 329 kts | 356° |
| 2026-04-22 20:22 | 33.36711 | 13.33068 | 21109 ft | 332 kts | 356° |
| 2026-04-22 20:22 | 33.39028 | 13.32868 | 21661 ft | 335 kts | 356° |
| 2026-04-22 20:23 | 33.41360 | 13.32667 | 22194 ft | 338 kts | 356° |
| 2026-04-22 20:23 | 33.43682 | 13.32466 | 22708 ft | 340 kts | 356° |
| 2026-04-22 20:23 | 33.46054 | 13.32261 | 23205 ft | 343 kts | 356° |
| 2026-04-22 20:23 | 33.48440 | 13.32055 | 23690 ft | 345 kts | 356° |
| 2026-04-22 20:24 | 33.50844 | 13.31847 | 24150 ft | 348 kts | 356° |
| 2026-04-22 20:24 | 33.53270 | 13.31637 | 24598 ft | 351 kts | 356° |
| 2026-04-22 20:24 | 33.55712 | 13.31425 | 25036 ft | 353 kts | 356° |
| 2026-04-22 20:24 | 33.58173 | 13.31212 | 25462 ft | 355 kts | 356° |
| 2026-04-22 20:25 | 33.60644 | 13.30998 | 25876 ft | 358 kts | 356° |
| 2026-04-22 20:25 | 33.63137 | 13.30782 | 26279 ft | 360 kts | 356° |
| 2026-04-22 20:25 | 33.65645 | 13.30564 | 26692 ft | 361 kts | 356° |
| 2026-04-22 20:25 | 33.68152 | 13.30346 | 27144 ft | 361 kts | 356° |
| 2026-04-22 20:26 | 33.70658 | 13.30128 | 27595 ft | 361 kts | 356° |
| 2026-04-22 20:26 | 33.73156 | 13.29911 | 28032 ft | 360 kts | 356° |
| 2026-04-22 20:26 | 33.75654 | 13.29694 | 28455 ft | 360 kts | 356° |
| 2026-04-22 20:26 | 33.78145 | 13.29477 | 28869 ft | 359 kts | 356° |
| 2026-04-22 20:27 | 33.80636 | 13.29260 | 29265 ft | 358 kts | 356° |
| 2026-04-22 20:27 | 33.83119 | 13.29043 | 29646 ft | 357 kts | 356° |
| 2026-04-22 20:27 | 33.85593 | 13.28828 | 30018 ft | 357 kts | 356° |
| 2026-04-22 20:27 | 33.88064 | 13.28612 | 30361 ft | 356 kts | 356° |
| 2026-04-22 20:28 | 33.90534 | 13.28396 | 30700 ft | 355 kts | 356° |
| 2026-04-22 20:28 | 33.92998 | 13.28181 | 31028 ft | 355 kts | 356° |
| 2026-04-22 20:28 | 33.95459 | 13.27966 | 31338 ft | 354 kts | 356° |
| 2026-04-22 20:28 | 33.97914 | 13.27751 | 31634 ft | 354 kts | 356° |
| 2026-04-22 20:29 | 34.00369 | 13.27536 | 31916 ft | 354 kts | 356° |
| 2026-04-22 20:29 | 34.02829 | 13.27321 | 32019 ft | 355 kts | 356° |
| 2026-04-22 20:29 | 34.05276 | 13.27106 | 31999 ft | 352 kts | 356° |
| 2026-04-22 20:30 | 34.10154 | 13.26678 | 32001 ft | 351 kts | 356° |
| 2026-04-22 20:30 | 34.15067 | 13.26247 | 32001 ft | 361 kts | 356° |
| 2026-04-22 20:31 | 34.20196 | 13.25796 | 31999 ft | 378 kts | 356° |
| 2026-04-22 20:31 | 34.25555 | 13.25325 | 32003 ft | 395 kts | 356° |
| 2026-04-22 20:32 | 34.31149 | 13.24832 | 32001 ft | 411 kts | 355° |
| 2026-04-22 20:32 | 34.33986 | 13.24239 | 31981 ft | 419 kts | 340° |
| 2026-04-22 20:32 | 34.36682 | 13.22833 | 31997 ft | 426 kts | 337° |
| 2026-04-22 20:33 | 34.42234 | 13.19999 | 31991 ft | 440 kts | 337° |
| 2026-04-22 20:33 | 34.47878 | 13.17067 | 32000 ft | 441 kts | 336° |
| 2026-04-22 20:34 | 34.53517 | 13.14125 | 32000 ft | 441 kts | 336° |
| 2026-04-22 20:34 | 34.59153 | 13.11179 | 32000 ft | 441 kts | 336° |
| 2026-04-22 20:35 | 34.64791 | 13.08227 | 32000 ft | 441 kts | 336° |
| 2026-04-22 20:35 | 34.70426 | 13.05273 | 32000 ft | 441 kts | 336° |
| 2026-04-22 20:36 | 34.76063 | 13.02313 | 32000 ft | 441 kts | 336° |
| 2026-04-22 20:36 | 34.81664 | 12.99368 | 32000 ft | 441 kts | 336° |
| 2026-04-22 20:37 | 34.87297 | 12.96402 | 32000 ft | 441 kts | 336° |
| 2026-04-22 20:37 | 34.92933 | 12.93430 | 32000 ft | 441 kts | 336° |
| 2026-04-22 20:38 | 34.98568 | 12.90453 | 32000 ft | 441 kts | 336° |
| 2026-04-22 20:38 | 35.04199 | 12.87475 | 32000 ft | 441 kts | 336° |
| 2026-04-22 20:39 | 35.09831 | 12.84491 | 32000 ft | 441 kts | 336° |
| 2026-04-22 20:39 | 35.15460 | 12.81505 | 32000 ft | 441 kts | 336° |
| 2026-04-22 20:40 | 35.21092 | 12.78511 | 32000 ft | 441 kts | 336° |
| 2026-04-22 20:40 | 35.25773 | 12.76021 | 32000 ft | 441 kts | 336° |
| 2026-04-22 20:41 | 35.32352 | 12.72515 | 32000 ft | 441 kts | 336° |
| 2026-04-22 20:41 | 35.37029 | 12.70018 | 32000 ft | 441 kts | 336° |
| 2026-04-22 20:42 | 35.42659 | 12.67010 | 32000 ft | 441 kts | 336° |
| 2026-04-22 20:42 | 35.48289 | 12.63997 | 32000 ft | 441 kts | 336° |
| 2026-04-22 20:43 | 35.53972 | 12.61149 | 32001 ft | 441 kts | 338° |
| 2026-04-22 20:43 | 35.59663 | 12.58311 | 32000 ft | 441 kts | 338° |
| 2026-04-22 20:44 | 35.65350 | 12.55467 | 32000 ft | 441 kts | 338° |
| 2026-04-22 20:44 | 35.71039 | 12.52618 | 32000 ft | 441 kts | 338° |
| 2026-04-22 20:45 | 35.76723 | 12.49766 | 32000 ft | 441 kts | 338° |
| 2026-04-22 20:45 | 35.82414 | 12.46912 | 32000 ft | 441 kts | 338° |
| 2026-04-22 20:46 | 35.90940 | 12.42631 | 32000 ft | 441 kts | 338° |
| 2026-04-22 20:46 | 35.96625 | 12.39770 | 32000 ft | 441 kts | 338° |
| 2026-04-22 20:47 | 36.02301 | 12.36910 | 32000 ft | 441 kts | 338° |
| 2026-04-22 20:47 | 36.07988 | 12.34040 | 32000 ft | 441 kts | 338° |
| 2026-04-22 20:48 | 36.13593 | 12.30975 | 31982 ft | 441 kts | 327° |
| 2026-04-22 20:48 | 36.15915 | 12.28522 | 31995 ft | 439 kts | 310° |
| 2026-04-22 20:48 | 36.17681 | 12.25441 | 31888 ft | 441 kts | 298° |
| 2026-04-22 20:49 | 36.18879 | 12.21960 | 31482 ft | 440 kts | 288° |
| 2026-04-22 20:49 | 36.19913 | 12.18397 | 30971 ft | 440 kts | 291° |
| 2026-04-22 20:49 | 36.21009 | 12.14856 | 30357 ft | 441 kts | 291° |
| 2026-04-22 20:49 | 36.22106 | 12.11359 | 29750 ft | 442 kts | 291° |
| 2026-04-22 20:50 | 36.23237 | 12.07759 | 29105 ft | 443 kts | 291° |
| 2026-04-22 20:50 | 36.24356 | 12.04197 | 28476 ft | 444 kts | 291° |
| 2026-04-22 20:50 | 36.25463 | 12.00675 | 27858 ft | 446 kts | 291° |
| 2026-04-22 20:50 | 36.26589 | 11.97087 | 27229 ft | 447 kts | 291° |
| 2026-04-22 20:51 | 36.27715 | 11.93491 | 26606 ft | 448 kts | 291° |
| 2026-04-22 20:51 | 36.28842 | 11.89886 | 25969 ft | 450 kts | 291° |
| 2026-04-22 20:51 | 36.29974 | 11.86261 | 25336 ft | 451 kts | 291° |
| 2026-04-22 20:51 | 36.31099 | 11.82648 | 24714 ft | 448 kts | 291° |
| 2026-04-22 20:52 | 36.32214 | 11.79054 | 24090 ft | 444 kts | 291° |
| 2026-04-22 20:52 | 36.33315 | 11.75497 | 23469 ft | 440 kts | 291° |
| 2026-04-22 20:52 | 36.34408 | 11.71961 | 22843 ft | 436 kts | 291° |
| 2026-04-22 20:52 | 36.35488 | 11.68464 | 22204 ft | 433 kts | 291° |
| 2026-04-22 20:53 | 36.36557 | 11.64995 | 21596 ft | 429 kts | 291° |
| 2026-04-22 20:53 | 36.37616 | 11.61557 | 20972 ft | 425 kts | 291° |
| 2026-04-22 20:53 | 36.38665 | 11.58147 | 20348 ft | 421 kts | 291° |
| 2026-04-22 20:53 | 36.39703 | 11.54770 | 19723 ft | 417 kts | 291° |
| 2026-04-22 20:54 | 36.40731 | 11.51420 | 19099 ft | 413 kts | 291° |
| 2026-04-22 20:54 | 36.41749 | 11.48099 | 18478 ft | 410 kts | 291° |
| 2026-04-22 20:54 | 36.42757 | 11.44809 | 17851 ft | 406 kts | 291° |
| 2026-04-22 20:54 | 36.43754 | 11.41549 | 17221 ft | 403 kts | 291° |
| 2026-04-22 20:55 | 36.44746 | 11.38306 | 16678 ft | 399 kts | 290° |
| 2026-04-22 20:55 | 36.45722 | 11.35104 | 16172 ft | 394 kts | 290° |
| 2026-04-22 20:55 | 36.46687 | 11.31937 | 15666 ft | 390 kts | 290° |
| 2026-04-22 20:55 | 36.47643 | 11.28796 | 15162 ft | 386 kts | 290° |
| 2026-04-22 20:56 | 36.48589 | 11.25686 | 14642 ft | 383 kts | 290° |
| 2026-04-22 20:56 | 36.49526 | 11.22603 | 14137 ft | 380 kts | 290° |
| 2026-04-22 20:56 | 36.50455 | 11.19543 | 13645 ft | 377 kts | 290° |
| 2026-04-22 20:56 | 36.51377 | 11.16503 | 13148 ft | 374 kts | 290° |
| 2026-04-22 20:57 | 36.52291 | 11.13489 | 12645 ft | 372 kts | 290° |
| 2026-04-22 20:57 | 36.53198 | 11.10493 | 12149 ft | 369 kts | 290° |
| 2026-04-22 20:57 | 36.54099 | 11.07517 | 11649 ft | 367 kts | 290° |
| 2026-04-22 20:57 | 36.54993 | 11.04556 | 11153 ft | 364 kts | 290° |
| 2026-04-22 20:58 | 36.55881 | 11.01614 | 10652 ft | 362 kts | 290° |
| 2026-04-22 20:58 | 36.56755 | 10.98714 | 10147 ft | 357 kts | 290° |
| 2026-04-22 20:58 | 36.57624 | 10.95829 | 9655 ft | 355 kts | 290° |
| 2026-04-22 20:58 | 36.58488 | 10.92959 | 9154 ft | 353 kts | 290° |
| 2026-04-22 20:59 | 36.59348 | 10.90101 | 8657 ft | 352 kts | 290° |
| 2026-04-22 20:59 | 36.60202 | 10.87261 | 8160 ft | 350 kts | 290° |
| 2026-04-22 20:59 | 36.61051 | 10.84431 | 7661 ft | 348 kts | 290° |
| 2026-04-22 20:59 | 36.61896 | 10.81614 | 7200 ft | 345 kts | 290° |
| 2026-04-22 21:00 | 36.62727 | 10.78836 | 6829 ft | 340 kts | 290° |
| 2026-04-22 21:00 | 36.63546 | 10.76099 | 6446 ft | 335 kts | 290° |
| 2026-04-22 21:00 | 36.64344 | 10.73428 | 6077 ft | 331 kts | 290° |
| 2026-04-22 21:00 | 36.65139 | 10.70764 | 5750 ft | 325 kts | 290° |
| 2026-04-22 21:01 | 36.65917 | 10.68155 | 5505 ft | 318 kts | 290° |
| 2026-04-22 21:01 | 36.66677 | 10.65607 | 5266 ft | 310 kts | 290° |
| 2026-04-22 21:01 | 36.67416 | 10.63124 | 5093 ft | 301 kts | 290° |
| 2026-04-22 21:01 | 36.68132 | 10.60719 | 4919 ft | 292 kts | 290° |
| 2026-04-22 21:02 | 36.68831 | 10.58372 | 4740 ft | 285 kts | 290° |
| 2026-04-22 21:02 | 36.69509 | 10.56090 | 4567 ft | 277 kts | 290° |
| 2026-04-22 21:02 | 36.70170 | 10.53867 | 4365 ft | 271 kts | 290° |
| 2026-04-22 21:02 | 36.70803 | 10.51689 | 4201 ft | 264 kts | 286° |
| 2026-04-22 21:03 | 36.70984 | 10.49451 | 4028 ft | 256 kts | 270° |
| 2026-04-22 21:03 | 36.70999 | 10.47279 | 3753 ft | 246 kts | 271° |
| 2026-04-22 21:03 | 36.71018 | 10.45182 | 3508 ft | 236 kts | 270° |
| 2026-04-22 21:03 | 36.71034 | 10.43204 | 3355 ft | 222 kts | 270° |
| 2026-04-22 21:04 | 36.71049 | 10.41343 | 3238 ft | 205 kts | 270° |
| 2026-04-22 21:04 | 36.71061 | 10.39667 | 3149 ft | 181 kts | 270° |
| 2026-04-22 21:04 | 36.71073 | 10.38149 | 2981 ft | 172 kts | 270° |
| 2026-04-22 21:04 | 36.71084 | 10.36666 | 2794 ft | 170 kts | 270° |
| 2026-04-22 21:05 | 36.71094 | 10.35189 | 2676 ft | 171 kts | 270° |
| 2026-04-22 21:05 | 36.71104 | 10.33711 | 2530 ft | 171 kts | 270° |
| 2026-04-22 21:05 | 36.71114 | 10.32262 | 2395 ft | 160 kts | 270° |
| 2026-04-22 21:05 | 36.71123 | 10.30902 | 2214 ft | 153 kts | 270° |
| 2026-04-22 21:06 | 36.71132 | 10.29585 | 2045 ft | 151 kts | 270° |
| 2026-04-22 21:06 | 36.71140 | 10.28280 | 1909 ft | 150 kts | 270° |
| 2026-04-22 21:06 | 36.71148 | 10.26979 | 1895 ft | 151 kts | 270° |
| 2026-04-22 21:06 | 36.71156 | 10.25673 | 1871 ft | 151 kts | 270° |
| 2026-04-22 21:07 | 36.71164 | 10.24369 | 1857 ft | 151 kts | 270° |
| 2026-04-22 21:07 | 36.71172 | 10.23065 | 1852 ft | 151 kts | 270° |
| 2026-04-22 21:07 | 36.71180 | 10.21759 | 1850 ft | 151 kts | 270° |
| 2026-04-22 21:07 | 36.71444 | 10.20526 | 1795 ft | 147 kts | 307° |
| 2026-04-22 21:08 | 36.72275 | 10.19892 | 1767 ft | 140 kts | 349° |
| 2026-04-22 21:08 | 36.73245 | 10.19757 | 1836 ft | 141 kts | 357° |
| 2026-04-22 21:08 | 36.74224 | 10.19817 | 1859 ft | 141 kts | 7° |
| 2026-04-22 21:08 | 36.75195 | 10.20013 | 1710 ft | 140 kts | 11° |
| 2026-04-22 21:09 | 36.76150 | 10.20263 | 1553 ft | 140 kts | 12° |
| 2026-04-22 21:09 | 36.77089 | 10.20518 | 1386 ft | 140 kts | 12° |
| 2026-04-22 21:09 | 36.78052 | 10.20780 | 1208 ft | 139 kts | 12° |
| 2026-04-22 21:09 | 36.78997 | 10.21038 | 1029 ft | 139 kts | 12° |
| 2026-04-22 21:10 | 36.79929 | 10.21291 | 849 ft | 139 kts | 12° |
| 2026-04-22 21:10 | 36.80870 | 10.21548 | 666 ft | 138 kts | 12° |
| 2026-04-22 21:10 | 36.81806 | 10.21803 | 481 ft | 138 kts | 12° |
| 2026-04-22 21:10 | 36.82743 | 10.22058 | 301 ft | 138 kts | 12° |
| 2026-04-22 21:11 | 36.83676 | 10.22311 | 117 ft | 137 kts | 12° |
| 2026-04-22 21:11 | 36.84576 | 10.22546 | 31 ft | 122 kts | 12° |
| 2026-04-22 21:11 | 36.85202 | 10.22714 | 36 ft | 60 kts | 12° |
| 2026-04-22 21:11 | 36.85475 | 10.22790 | 35 ft | 36 kts | 12° |
| 2026-04-22 21:12 | 36.85739 | 10.22863 | 33 ft | 40 kts | 12° |
| 2026-04-22 21:12 | 36.85997 | 10.22857 | 31 ft | 37 kts | 310° |
| 2026-04-22 21:12 | 36.85926 | 10.22660 | 32 ft | 29 kts | 197° |
| 2026-04-22 21:12 | 36.85730 | 10.22601 | 32 ft | 29 kts | 193° |
| 2026-04-22 21:13 | 36.85530 | 10.22544 | 33 ft | 30 kts | 193° |
| 2026-04-22 21:13 | 36.85327 | 10.22485 | 34 ft | 30 kts | 193° |
| 2026-04-22 21:13 | 36.85127 | 10.22427 | 36 ft | 30 kts | 193° |
| 2026-04-22 21:13 | 36.84913 | 10.22362 | 33 ft | 32 kts | 205° |
| 2026-04-22 21:14 | 36.84887 | 10.22173 | 33 ft | 22 kts | 271° |
| 2026-04-22 21:14 | 36.84790 | 10.22090 | 33 ft | 18 kts | 184° |
| 2026-04-22 21:14 | 36.84740 | 10.22028 | 33 ft | 6 kts | 275° |
| 2026-04-22 21:14 | 36.84731 | 10.21991 | 33 ft | 4 kts | 226° |
| 2026-04-22 21:15 | 36.84705 | 10.21976 | 33 ft | 5 kts | 196° |
| 2026-04-22 21:15 | 36.84663 | 10.21960 | 33 ft | 1 kts | 198° |